sensor_id;sensor_type;location;lat;lon;timestamp;temperature;humidity
33803;DHT22;20110;53.120;5.786;2023-07-24T00:00:35;15.40;99.90
33803;DHT22;20110;53.120;5.786;2023-07-24T00:03:02;15.30;99.90
33803;DHT22;20110;53.120;5.786;2023-07-24T00:05:28;15.30;99.90
33803;DHT22;20110;53.120;5.786;2023-07-24T00:07:54;15.30;99.90
33803;DHT22;20110;53.120;5.786;2023-07-24T00:10:20;15.40;99.90
33803;DHT22;20110;53.120;5.786;2023-07-24T00:12:46;15.40;99.90
33803;DHT22;20110;53.120;5.786;2023-07-24T00:15:12;15.30;99.90
33803;DHT22;20110;53.120;5.786;2023-07-24T00:17:37;15.30;99.90
33803;DHT22;20110;53.120;5.786;2023-07-24T00:20:03;15.30;99.90
33803;DHT22;20110;53.120;5.786;2023-07-24T00:22:30;15.30;99.90
33803;DHT22;20110;53.120;5.786;2023-07-24T00:24:56;15.30;99.90
33803;DHT22;20110;53.120;5.786;2023-07-24T00:27:21;15.20;99.90
33803;DHT22;20110;53.120;5.786;2023-07-24T00:29:47;15.30;99.90
33803;DHT22;20110;53.120;5.786;2023-07-24T00:32:13;15.20;99.90
33803;DHT22;20110;53.120;5.786;2023-07-24T00:34:39;15.20;99.90
33803;DHT22;20110;53.120;5.786;2023-07-24T00:37:05;15.20;99.90
33803;DHT22;20110;53.120;5.786;2023-07-24T00:39:31;15.20;99.90
33803;DHT22;20110;53.120;5.786;2023-07-24T00:41:56;15.30;99.90
33803;DHT22;20110;53.120;5.786;2023-07-24T00:44:22;15.20;99.90
33803;DHT22;20110;53.120;5.786;2023-07-24T00:46:48;15.30;99.90
33803;DHT22;20110;53.120;5.786;2023-07-24T00:49:15;15.30;99.90
33803;DHT22;20110;53.120;5.786;2023-07-24T00:51:41;15.30;99.90
33803;DHT22;20110;53.120;5.786;2023-07-24T00:54:08;15.30;99.90
33803;DHT22;20110;53.120;5.786;2023-07-24T00:56:34;15.30;99.90
33803;DHT22;20110;53.120;5.786;2023-07-24T00:59:01;15.30;99.90
33803;DHT22;20110;53.120;5.786;2023-07-24T01:01:27;15.20;99.90
33803;DHT22;20110;53.120;5.786;2023-07-24T01:03:54;15.30;99.90
33803;DHT22;20110;53.120;5.786;2023-07-24T01:06:23;15.20;99.90
33803;DHT22;20110;53.120;5.786;2023-07-24T01:08:49;15.10;99.90
33803;DHT22;20110;53.120;5.786;2023-07-24T01:11:19;15.20;99.90
33803;DHT22;20110;53.120;5.786;2023-07-24T01:14:10;15.20;99.90
33803;DHT22;20110;53.120;5.786;2023-07-24T01:16:47;15.10;99.90
33803;DHT22;20110;53.120;5.786;2023-07-24T01:27:51;15.10;99.90
33803;DHT22;20110;53.120;5.786;2023-07-24T01:30:19;15.10;99.90
33803;DHT22;20110;53.120;5.786;2023-07-24T01:32:45;15.20;99.90
33803;DHT22;20110;53.120;5.786;2023-07-24T01:35:11;15.30;99.90
33803;DHT22;20110;53.120;5.786;2023-07-24T01:37:38;15.30;99.90
33803;DHT22;20110;53.120;5.786;2023-07-24T01:40:09;15.30;99.90
33803;DHT22;20110;53.120;5.786;2023-07-24T01:42:36;15.30;99.90
33803;DHT22;20110;53.120;5.786;2023-07-24T01:45:03;15.40;99.90
33803;DHT22;20110;53.120;5.786;2023-07-24T01:47:30;15.40;99.90
33803;DHT22;20110;53.120;5.786;2023-07-24T01:49:56;15.40;99.90
33803;DHT22;20110;53.120;5.786;2023-07-24T01:52:22;15.40;99.90
33803;DHT22;20110;53.120;5.786;2023-07-24T01:54:48;15.50;99.90
33803;DHT22;20110;53.120;5.786;2023-07-24T01:57:14;15.50;99.90
33803;DHT22;20110;53.120;5.786;2023-07-24T01:59:40;15.50;99.90
33803;DHT22;20110;53.120;5.786;2023-07-24T02:02:05;15.50;99.90
33803;DHT22;20110;53.120;5.786;2023-07-24T02:04:33;15.50;99.90
33803;DHT22;20110;53.120;5.786;2023-07-24T02:06:58;15.50;99.90
33803;DHT22;20110;53.120;5.786;2023-07-24T02:09:24;15.50;99.90
33803;DHT22;20110;53.120;5.786;2023-07-24T02:11:50;15.50;99.90
33803;DHT22;20110;53.120;5.786;2023-07-24T02:14:18;15.50;99.90
33803;DHT22;20110;53.120;5.786;2023-07-24T02:16:44;15.60;99.90
33803;DHT22;20110;53.120;5.786;2023-07-24T02:19:10;15.50;99.90
33803;DHT22;20110;53.120;5.786;2023-07-24T02:21:35;15.50;99.90
33803;DHT22;20110;53.120;5.786;2023-07-24T02:24:01;15.50;99.90
33803;DHT22;20110;53.120;5.786;2023-07-24T02:26:27;15.50;99.90
33803;DHT22;20110;53.120;5.786;2023-07-24T02:28:53;15.60;99.90
33803;DHT22;20110;53.120;5.786;2023-07-24T02:31:19;15.50;99.90
33803;DHT22;20110;53.120;5.786;2023-07-24T02:33:45;15.50;99.90
33803;DHT22;20110;53.120;5.786;2023-07-24T02:36:11;15.60;99.90
33803;DHT22;20110;53.120;5.786;2023-07-24T02:38:37;15.50;99.90
33803;DHT22;20110;53.120;5.786;2023-07-24T02:41:03;15.60;99.90
33803;DHT22;20110;53.120;5.786;2023-07-24T02:43:28;15.50;99.90
33803;DHT22;20110;53.120;5.786;2023-07-24T02:45:54;15.40;99.90
33803;DHT22;20110;53.120;5.786;2023-07-24T02:48:20;15.40;99.90
33803;DHT22;20110;53.120;5.786;2023-07-24T02:50:48;15.40;99.90
33803;DHT22;20110;53.120;5.786;2023-07-24T02:53:15;15.40;99.90
33803;DHT22;20110;53.120;5.786;2023-07-24T02:55:44;15.40;99.90
33803;DHT22;20110;53.120;5.786;2023-07-24T02:58:11;15.40;99.90
33803;DHT22;20110;53.120;5.786;2023-07-24T03:00:38;15.50;99.90
33803;DHT22;20110;53.120;5.786;2023-07-24T03:03:04;15.40;99.90
33803;DHT22;20110;53.120;5.786;2023-07-24T03:05:33;15.40;99.90
33803;DHT22;20110;53.120;5.786;2023-07-24T03:07:59;15.50;99.90
33803;DHT22;20110;53.120;5.786;2023-07-24T03:10:25;15.50;99.90
33803;DHT22;20110;53.120;5.786;2023-07-24T03:12:51;15.60;99.90
33803;DHT22;20110;53.120;5.786;2023-07-24T03:15:18;15.50;99.90
33803;DHT22;20110;53.120;5.786;2023-07-24T03:17:44;15.50;99.90
33803;DHT22;20110;53.120;5.786;2023-07-24T03:20:15;15.50;99.90
33803;DHT22;20110;53.120;5.786;2023-07-24T03:22:42;15.50;99.90
33803;DHT22;20110;53.120;5.786;2023-07-24T03:25:08;15.50;99.90
33803;DHT22;20110;53.120;5.786;2023-07-24T03:27:35;15.50;99.90
33803;DHT22;20110;53.120;5.786;2023-07-24T03:30:01;15.50;99.90
33803;DHT22;20110;53.120;5.786;2023-07-24T03:32:28;15.50;99.90
33803;DHT22;20110;53.120;5.786;2023-07-24T03:34:54;15.50;99.90
33803;DHT22;20110;53.120;5.786;2023-07-24T03:37:20;15.50;99.90
33803;DHT22;20110;53.120;5.786;2023-07-24T03:39:46;15.50;99.90
33803;DHT22;20110;53.120;5.786;2023-07-24T03:42:12;15.50;99.90
33803;DHT22;20110;53.120;5.786;2023-07-24T03:44:41;15.60;99.90
33803;DHT22;20110;53.120;5.786;2023-07-24T03:47:07;15.60;99.90
33803;DHT22;20110;53.120;5.786;2023-07-24T03:49:35;15.60;99.90
33803;DHT22;20110;53.120;5.786;2023-07-24T03:52:00;15.60;99.90
33803;DHT22;20110;53.120;5.786;2023-07-24T03:54:26;15.60;99.90
33803;DHT22;20110;53.120;5.786;2023-07-24T03:56:52;15.70;99.90
33803;DHT22;20110;53.120;5.786;2023-07-24T03:59:18;15.60;99.90
33803;DHT22;20110;53.120;5.786;2023-07-24T04:01:44;15.60;99.90
33803;DHT22;20110;53.120;5.786;2023-07-24T04:04:09;15.60;99.90
33803;DHT22;20110;53.120;5.786;2023-07-24T04:06:35;15.70;99.90
33803;DHT22;20110;53.120;5.786;2023-07-24T04:09:01;15.70;99.90
33803;DHT22;20110;53.120;5.786;2023-07-24T04:11:27;15.70;99.90
33803;DHT22;20110;53.120;5.786;2023-07-24T04:13:53;15.70;99.90
33803;DHT22;20110;53.120;5.786;2023-07-24T04:16:18;15.70;99.90
33803;DHT22;20110;53.120;5.786;2023-07-24T04:18:44;15.70;99.90
33803;DHT22;20110;53.120;5.786;2023-07-24T04:21:10;15.70;99.90
33803;DHT22;20110;53.120;5.786;2023-07-24T04:23:36;15.70;99.90
33803;DHT22;20110;53.120;5.786;2023-07-24T04:26:01;15.70;99.90
33803;DHT22;20110;53.120;5.786;2023-07-24T04:28:27;15.70;99.90
33803;DHT22;20110;53.120;5.786;2023-07-24T04:30:53;15.70;99.90
33803;DHT22;20110;53.120;5.786;2023-07-24T04:33:20;15.70;99.90
33803;DHT22;20110;53.120;5.786;2023-07-24T04:35:49;15.70;99.90
33803;DHT22;20110;53.120;5.786;2023-07-24T04:38:15;15.80;99.90
33803;DHT22;20110;53.120;5.786;2023-07-24T04:40:43;15.80;99.90
33803;DHT22;20110;53.120;5.786;2023-07-24T04:43:10;15.80;99.90
33803;DHT22;20110;53.120;5.786;2023-07-24T04:45:36;15.80;99.90
33803;DHT22;20110;53.120;5.786;2023-07-24T04:48:02;15.70;99.90
33803;DHT22;20110;53.120;5.786;2023-07-24T04:50:28;15.70;99.90
33803;DHT22;20110;53.120;5.786;2023-07-24T04:52:55;15.80;99.90
33803;DHT22;20110;53.120;5.786;2023-07-24T04:55:21;15.80;99.90
33803;DHT22;20110;53.120;5.786;2023-07-24T04:57:47;15.90;99.90
33803;DHT22;20110;53.120;5.786;2023-07-24T05:00:13;15.90;99.90
33803;DHT22;20110;53.120;5.786;2023-07-24T05:02:40;15.90;99.90
33803;DHT22;20110;53.120;5.786;2023-07-24T05:05:07;15.90;99.90
33803;DHT22;20110;53.120;5.786;2023-07-24T05:07:33;15.90;99.90
33803;DHT22;20110;53.120;5.786;2023-07-24T05:09:59;15.90;99.90
33803;DHT22;20110;53.120;5.786;2023-07-24T05:12:26;15.90;99.90
33803;DHT22;20110;53.120;5.786;2023-07-24T05:14:53;15.90;99.90
33803;DHT22;20110;53.120;5.786;2023-07-24T05:17:18;15.90;99.90
33803;DHT22;20110;53.120;5.786;2023-07-24T05:19:45;15.80;99.90
33803;DHT22;20110;53.120;5.786;2023-07-24T05:22:11;15.80;99.90
33803;DHT22;20110;53.120;5.786;2023-07-24T05:24:37;15.80;99.90
33803;DHT22;20110;53.120;5.786;2023-07-24T05:27:06;15.80;99.90
33803;DHT22;20110;53.120;5.786;2023-07-24T05:29:32;15.90;99.90
33803;DHT22;20110;53.120;5.786;2023-07-24T05:31:58;15.90;99.90
33803;DHT22;20110;53.120;5.786;2023-07-24T05:34:25;15.90;99.90
33803;DHT22;20110;53.120;5.786;2023-07-24T05:36:51;15.90;99.90
33803;DHT22;20110;53.120;5.786;2023-07-24T05:39:17;16.00;99.90
33803;DHT22;20110;53.120;5.786;2023-07-24T05:41:42;16.10;99.90
33803;DHT22;20110;53.120;5.786;2023-07-24T05:44:08;16.10;99.90
33803;DHT22;20110;53.120;5.786;2023-07-24T05:46:34;16.10;99.90
33803;DHT22;20110;53.120;5.786;2023-07-24T05:49:00;16.20;99.90
33803;DHT22;20110;53.120;5.786;2023-07-24T05:51:27;16.20;99.90
33803;DHT22;20110;53.120;5.786;2023-07-24T05:53:53;16.20;99.90
33803;DHT22;20110;53.120;5.786;2023-07-24T05:56:19;16.20;99.90
33803;DHT22;20110;53.120;5.786;2023-07-24T05:58:45;16.30;99.90
33803;DHT22;20110;53.120;5.786;2023-07-24T06:01:10;16.40;99.90
33803;DHT22;20110;53.120;5.786;2023-07-24T06:03:36;16.30;99.90
33803;DHT22;20110;53.120;5.786;2023-07-24T06:06:04;16.50;99.90
33803;DHT22;20110;53.120;5.786;2023-07-24T06:08:30;16.50;99.90
33803;DHT22;20110;53.120;5.786;2023-07-24T06:10:56;16.40;99.90
33803;DHT22;20110;53.120;5.786;2023-07-24T06:13:22;16.50;99.90
33803;DHT22;20110;53.120;5.786;2023-07-24T06:15:48;16.50;99.90
33803;DHT22;20110;53.120;5.786;2023-07-24T06:18:16;16.50;99.90
33803;DHT22;20110;53.120;5.786;2023-07-24T06:20:42;16.60;99.90
33803;DHT22;20110;53.120;5.786;2023-07-24T06:23:07;16.70;99.90
33803;DHT22;20110;53.120;5.786;2023-07-24T06:25:34;16.60;99.90
33803;DHT22;20110;53.120;5.786;2023-07-24T06:28:00;16.70;99.90
33803;DHT22;20110;53.120;5.786;2023-07-24T06:30:26;16.70;99.90
33803;DHT22;20110;53.120;5.786;2023-07-24T06:32:52;16.80;99.90
33803;DHT22;20110;53.120;5.786;2023-07-24T06:35:18;16.70;99.90
33803;DHT22;20110;53.120;5.786;2023-07-24T06:37:43;16.80;99.90
33803;DHT22;20110;53.120;5.786;2023-07-24T06:40:10;16.90;99.90
33803;DHT22;20110;53.120;5.786;2023-07-24T06:42:36;17.00;99.90
33803;DHT22;20110;53.120;5.786;2023-07-24T06:45:02;17.10;99.90
33803;DHT22;20110;53.120;5.786;2023-07-24T06:47:28;17.00;99.90
33803;DHT22;20110;53.120;5.786;2023-07-24T06:49:54;17.10;99.90
33803;DHT22;20110;53.120;5.786;2023-07-24T06:52:20;17.10;99.90
33803;DHT22;20110;53.120;5.786;2023-07-24T06:54:46;17.00;99.90
33803;DHT22;20110;53.120;5.786;2023-07-24T06:57:12;16.90;99.90
33803;DHT22;20110;53.120;5.786;2023-07-24T06:59:37;17.00;99.90
33803;DHT22;20110;53.120;5.786;2023-07-24T07:02:03;17.10;99.90
33803;DHT22;20110;53.120;5.786;2023-07-24T07:04:29;17.10;99.90
33803;DHT22;20110;53.120;5.786;2023-07-24T07:06:55;16.90;99.90
33803;DHT22;20110;53.120;5.786;2023-07-24T07:09:21;17.00;99.90
33803;DHT22;20110;53.120;5.786;2023-07-24T07:11:47;17.00;99.90
33803;DHT22;20110;53.120;5.786;2023-07-24T07:14:12;16.80;99.90
33803;DHT22;20110;53.120;5.786;2023-07-24T07:16:39;17.00;99.90
33803;DHT22;20110;53.120;5.786;2023-07-24T07:19:04;17.10;99.90
33803;DHT22;20110;53.120;5.786;2023-07-24T07:21:30;16.90;99.90
33803;DHT22;20110;53.120;5.786;2023-07-24T07:23:56;17.10;99.90
33803;DHT22;20110;53.120;5.786;2023-07-24T07:26:22;17.00;99.90
33803;DHT22;20110;53.120;5.786;2023-07-24T07:28:48;17.10;99.90
33803;DHT22;20110;53.120;5.786;2023-07-24T07:31:14;17.10;99.90
33803;DHT22;20110;53.120;5.786;2023-07-24T07:33:40;17.20;99.90
33803;DHT22;20110;53.120;5.786;2023-07-24T07:36:06;17.20;99.90
33803;DHT22;20110;53.120;5.786;2023-07-24T07:38:32;17.40;99.90
33803;DHT22;20110;53.120;5.786;2023-07-24T07:40:58;17.30;99.90
33803;DHT22;20110;53.120;5.786;2023-07-24T07:43:24;17.20;99.90
33803;DHT22;20110;53.120;5.786;2023-07-24T07:45:50;17.50;99.90
33803;DHT22;20110;53.120;5.786;2023-07-24T07:48:16;17.40;99.90
33803;DHT22;20110;53.120;5.786;2023-07-24T07:50:42;17.50;99.90
33803;DHT22;20110;53.120;5.786;2023-07-24T07:53:08;17.50;99.90
33803;DHT22;20110;53.120;5.786;2023-07-24T07:55:34;17.60;99.90
33803;DHT22;20110;53.120;5.786;2023-07-24T07:58:00;17.70;99.90
33803;DHT22;20110;53.120;5.786;2023-07-24T08:00:26;18.00;99.90
33803;DHT22;20110;53.120;5.786;2023-07-24T08:02:52;18.00;99.90
33803;DHT22;20110;53.120;5.786;2023-07-24T08:05:18;18.10;99.90
33803;DHT22;20110;53.120;5.786;2023-07-24T08:07:44;18.00;99.90
33803;DHT22;20110;53.120;5.786;2023-07-24T08:10:10;18.00;99.90
33803;DHT22;20110;53.120;5.786;2023-07-24T08:12:36;18.00;99.90
33803;DHT22;20110;53.120;5.786;2023-07-24T08:15:01;18.00;99.90
33803;DHT22;20110;53.120;5.786;2023-07-24T08:17:27;18.10;99.90
33803;DHT22;20110;53.120;5.786;2023-07-24T08:19:53;18.30;99.90
33803;DHT22;20110;53.120;5.786;2023-07-24T08:22:19;18.40;99.90
33803;DHT22;20110;53.120;5.786;2023-07-24T08:24:45;18.30;99.90
33803;DHT22;20110;53.120;5.786;2023-07-24T08:27:12;18.30;99.90
33803;DHT22;20110;53.120;5.786;2023-07-24T08:29:38;18.50;99.90
33803;DHT22;20110;53.120;5.786;2023-07-24T08:32:04;18.40;99.90
33803;DHT22;20110;53.120;5.786;2023-07-24T08:34:30;18.10;99.90
33803;DHT22;20110;53.120;5.786;2023-07-24T08:36:56;17.80;99.90
33803;DHT22;20110;53.120;5.786;2023-07-24T08:39:22;18.10;99.90
33803;DHT22;20110;53.120;5.786;2023-07-24T08:41:49;17.90;99.90
33803;DHT22;20110;53.120;5.786;2023-07-24T08:44:16;18.00;99.90
33803;DHT22;20110;53.120;5.786;2023-07-24T08:46:43;18.10;99.90
33803;DHT22;20110;53.120;5.786;2023-07-24T08:49:12;18.20;99.90
33803;DHT22;20110;53.120;5.786;2023-07-24T08:51:40;17.90;99.90
33803;DHT22;20110;53.120;5.786;2023-07-24T08:54:07;17.60;99.90
33803;DHT22;20110;53.120;5.786;2023-07-24T08:56:33;17.50;99.90
33803;DHT22;20110;53.120;5.786;2023-07-24T08:59:02;17.60;99.90
33803;DHT22;20110;53.120;5.786;2023-07-24T09:01:28;17.60;99.90
33803;DHT22;20110;53.120;5.786;2023-07-24T09:03:54;17.40;99.90
33803;DHT22;20110;53.120;5.786;2023-07-24T09:06:19;17.30;99.90
33803;DHT22;20110;53.120;5.786;2023-07-24T09:08:45;17.40;99.90
33803;DHT22;20110;53.120;5.786;2023-07-24T09:11:14;17.50;99.90
33803;DHT22;20110;53.120;5.786;2023-07-24T09:13:43;17.20;99.90
33803;DHT22;20110;53.120;5.786;2023-07-24T09:16:23;17.10;99.90
33803;DHT22;20110;53.120;5.786;2023-07-24T09:18:51;16.70;99.90
33803;DHT22;20110;53.120;5.786;2023-07-24T09:21:29;16.30;99.90
33803;DHT22;20110;53.120;5.786;2023-07-24T09:23:56;16.10;99.90
33803;DHT22;20110;53.120;5.786;2023-07-24T09:26:23;16.00;99.90
33803;DHT22;20110;53.120;5.786;2023-07-24T09:28:53;16.00;99.90
33803;DHT22;20110;53.120;5.786;2023-07-24T09:31:20;16.00;99.90
33803;DHT22;20110;53.120;5.786;2023-07-24T09:33:45;16.20;99.90
33803;DHT22;20110;53.120;5.786;2023-07-24T09:36:12;16.40;99.90
33803;DHT22;20110;53.120;5.786;2023-07-24T09:38:39;16.40;99.90
33803;DHT22;20110;53.120;5.786;2023-07-24T09:41:06;16.60;99.90
33803;DHT22;20110;53.120;5.786;2023-07-24T09:43:33;16.60;99.90
33803;DHT22;20110;53.120;5.786;2023-07-24T09:46:01;16.40;99.90
33803;DHT22;20110;53.120;5.786;2023-07-24T09:48:30;16.60;99.90
33803;DHT22;20110;53.120;5.786;2023-07-24T09:50:59;16.50;99.90
33803;DHT22;20110;53.120;5.786;2023-07-24T09:53:34;16.50;99.90
33803;DHT22;20110;53.120;5.786;2023-07-24T09:56:09;16.50;99.90
33803;DHT22;20110;53.120;5.786;2023-07-24T09:58:37;16.70;99.90
33803;DHT22;20110;53.120;5.786;2023-07-24T10:01:07;16.70;99.90
33803;DHT22;20110;53.120;5.786;2023-07-24T10:03:35;16.60;99.90
33803;DHT22;20110;53.120;5.786;2023-07-24T10:06:04;16.70;99.90
33803;DHT22;20110;53.120;5.786;2023-07-24T10:08:31;17.10;99.90
33803;DHT22;20110;53.120;5.786;2023-07-24T10:11:00;17.60;99.90
33803;DHT22;20110;53.120;5.786;2023-07-24T10:13:27;17.70;99.90
33803;DHT22;20110;53.120;5.786;2023-07-24T10:15:54;17.90;99.90
33803;DHT22;20110;53.120;5.786;2023-07-24T10:18:27;18.00;99.90
33803;DHT22;20110;53.120;5.786;2023-07-24T10:21:26;17.90;99.90
33803;DHT22;20110;53.120;5.786;2023-07-24T10:23:52;18.00;99.90
33803;DHT22;20110;53.120;5.786;2023-07-24T10:26:25;18.10;99.90
33803;DHT22;20110;53.120;5.786;2023-07-24T10:28:52;18.40;99.90
33803;DHT22;20110;53.120;5.786;2023-07-24T10:31:22;18.70;99.90
33803;DHT22;20110;53.120;5.786;2023-07-24T10:33:49;19.20;99.90
33803;DHT22;20110;53.120;5.786;2023-07-24T10:36:20;19.40;99.90
33803;DHT22;20110;53.120;5.786;2023-07-24T10:38:56;19.70;99.90
33803;DHT22;20110;53.120;5.786;2023-07-24T10:41:22;19.50;99.90
33803;DHT22;20110;53.120;5.786;2023-07-24T10:43:49;19.50;99.90
33803;DHT22;20110;53.120;5.786;2023-07-24T10:46:34;19.20;99.90
33803;DHT22;20110;53.120;5.786;2023-07-24T10:49:01;19.10;99.90
33803;DHT22;20110;53.120;5.786;2023-07-24T10:51:29;18.70;99.90
33803;DHT22;20110;53.120;5.786;2023-07-24T10:53:57;18.50;99.90
33803;DHT22;20110;53.120;5.786;2023-07-24T10:56:25;18.60;99.90
33803;DHT22;20110;53.120;5.786;2023-07-24T10:58:51;18.50;99.90
33803;DHT22;20110;53.120;5.786;2023-07-24T11:01:18;19.30;99.90
33803;DHT22;20110;53.120;5.786;2023-07-24T11:03:44;19.90;99.90
33803;DHT22;20110;53.120;5.786;2023-07-24T11:06:18;20.00;99.90
33803;DHT22;20110;53.120;5.786;2023-07-24T11:08:56;20.10;99.90
33803;DHT22;20110;53.120;5.786;2023-07-24T11:11:34;20.30;99.90
33803;DHT22;20110;53.120;5.786;2023-07-24T11:14:04;19.90;99.90
33803;DHT22;20110;53.120;5.786;2023-07-24T11:16:30;20.40;99.90
33803;DHT22;20110;53.120;5.786;2023-07-24T11:18:57;20.40;99.90
33803;DHT22;20110;53.120;5.786;2023-07-24T11:21:23;20.30;99.90
33803;DHT22;20110;53.120;5.786;2023-07-24T11:23:51;20.40;99.90
33803;DHT22;20110;53.120;5.786;2023-07-24T11:26:22;20.30;99.90
33803;DHT22;20110;53.120;5.786;2023-07-24T11:28:53;20.80;99.90
33803;DHT22;20110;53.120;5.786;2023-07-24T11:31:19;21.40;99.90
33803;DHT22;20110;53.120;5.786;2023-07-24T11:33:49;20.80;99.90
33803;DHT22;20110;53.120;5.786;2023-07-24T11:36:26;21.40;99.90
33803;DHT22;20110;53.120;5.786;2023-07-24T11:38:52;22.00;99.90
33803;DHT22;20110;53.120;5.786;2023-07-24T11:41:17;22.10;42.70
33803;DHT22;20110;53.120;5.786;2023-07-24T11:43:47;22.40;28.80
33803;DHT22;20110;53.120;5.786;2023-07-24T11:48:50;22.00;99.90
33803;DHT22;20110;53.120;5.786;2023-07-24T11:51:19;21.70;99.90
33803;DHT22;20110;53.120;5.786;2023-07-24T11:53:45;22.10;99.90
33803;DHT22;20110;53.120;5.786;2023-07-24T11:56:15;21.80;99.90
33803;DHT22;20110;53.120;5.786;2023-07-24T11:58:42;21.50;99.90
33803;DHT22;20110;53.120;5.786;2023-07-24T12:01:08;21.40;99.90
33803;DHT22;20110;53.120;5.786;2023-07-24T12:03:34;21.40;99.90
33803;DHT22;20110;53.120;5.786;2023-07-24T12:06:02;21.80;99.90
33803;DHT22;20110;53.120;5.786;2023-07-24T12:08:33;22.10;99.90
33803;DHT22;20110;53.120;5.786;2023-07-24T12:11:00;22.20;99.90
33803;DHT22;20110;53.120;5.786;2023-07-24T12:13:26;22.80;99.90
33803;DHT22;20110;53.120;5.786;2023-07-24T12:15:53;22.90;99.90
33803;DHT22;20110;53.120;5.786;2023-07-24T12:18:20;21.90;99.90
33803;DHT22;20110;53.120;5.786;2023-07-24T12:20:45;21.40;99.90
33803;DHT22;20110;53.120;5.786;2023-07-24T12:23:12;21.40;1.00
33803;DHT22;20110;53.120;5.786;2023-07-24T12:25:38;20.80;1.00
33803;DHT22;20110;53.120;5.786;2023-07-24T12:28:04;21.20;99.90
33803;DHT22;20110;53.120;5.786;2023-07-24T12:30:30;21.10;96.20
33803;DHT22;20110;53.120;5.786;2023-07-24T12:32:56;20.90;99.90
33803;DHT22;20110;53.120;5.786;2023-07-24T12:35:21;20.80;99.90
33803;DHT22;20110;53.120;5.786;2023-07-24T12:37:47;20.60;99.90
33803;DHT22;20110;53.120;5.786;2023-07-24T12:40:13;20.50;99.90
33803;DHT22;20110;53.120;5.786;2023-07-24T12:42:39;20.20;99.90
33803;DHT22;20110;53.120;5.786;2023-07-24T12:45:05;20.10;99.90
33803;DHT22;20110;53.120;5.786;2023-07-24T12:47:32;20.10;99.90
33803;DHT22;20110;53.120;5.786;2023-07-24T12:49:59;19.80;99.90
33803;DHT22;20110;53.120;5.786;2023-07-24T12:52:26;19.60;1.00
33803;DHT22;20110;53.120;5.786;2023-07-24T12:54:52;19.40;1.00
33803;DHT22;20110;53.120;5.786;2023-07-24T12:57:19;19.20;1.00
33803;DHT22;20110;53.120;5.786;2023-07-24T12:59:44;19.00;2.20
33803;DHT22;20110;53.120;5.786;2023-07-24T13:02:10;18.90;71.70
33803;DHT22;20110;53.120;5.786;2023-07-24T13:04:36;19.10;1.00
33803;DHT22;20110;53.120;5.786;2023-07-24T13:07:02;19.00;1.00
33803;DHT22;20110;53.120;5.786;2023-07-24T13:09:29;18.80;65.60
33803;DHT22;20110;53.120;5.786;2023-07-24T13:11:55;18.50;99.90
33803;DHT22;20110;53.120;5.786;2023-07-24T13:14:21;18.50;99.90
33803;DHT22;20110;53.120;5.786;2023-07-24T13:16:49;18.40;99.90
33803;DHT22;20110;53.120;5.786;2023-07-24T13:19:16;18.40;99.90
33803;DHT22;20110;53.120;5.786;2023-07-24T13:21:41;18.40;99.90
33803;DHT22;20110;53.120;5.786;2023-07-24T13:24:11;18.60;99.90
33803;DHT22;20110;53.120;5.786;2023-07-24T13:26:37;19.00;99.90
33803;DHT22;20110;53.120;5.786;2023-07-24T13:29:03;19.30;99.90
33803;DHT22;20110;53.120;5.786;2023-07-24T13:31:31;19.20;99.90
33803;DHT22;20110;53.120;5.786;2023-07-24T13:33:57;19.00;99.90
33803;DHT22;20110;53.120;5.786;2023-07-24T13:36:24;18.60;99.90
33803;DHT22;20110;53.120;5.786;2023-07-24T13:38:50;18.40;99.90
33803;DHT22;20110;53.120;5.786;2023-07-24T13:41:17;18.20;99.90
33803;DHT22;20110;53.120;5.786;2023-07-24T13:43:43;18.00;99.90
33803;DHT22;20110;53.120;5.786;2023-07-24T13:46:08;17.80;99.90
33803;DHT22;20110;53.120;5.786;2023-07-24T13:48:34;17.50;99.90
33803;DHT22;20110;53.120;5.786;2023-07-24T13:51:00;17.20;99.90
33803;DHT22;20110;53.120;5.786;2023-07-24T13:53:26;16.80;99.90
33803;DHT22;20110;53.120;5.786;2023-07-24T13:55:53;16.70;99.90
33803;DHT22;20110;53.120;5.786;2023-07-24T13:58:19;16.40;99.90
33803;DHT22;20110;53.120;5.786;2023-07-24T14:00:45;16.10;99.90
33803;DHT22;20110;53.120;5.786;2023-07-24T14:03:11;15.70;99.90
33803;DHT22;20110;53.120;5.786;2023-07-24T14:05:37;15.40;99.90
33803;DHT22;20110;53.120;5.786;2023-07-24T14:08:04;15.20;99.90
33803;DHT22;20110;53.120;5.786;2023-07-24T14:10:31;15.10;99.90
33803;DHT22;20110;53.120;5.786;2023-07-24T14:12:58;15.00;99.90
33803;DHT22;20110;53.120;5.786;2023-07-24T14:15:24;14.90;99.90
33803;DHT22;20110;53.120;5.786;2023-07-24T14:17:50;15.00;99.90
33803;DHT22;20110;53.120;5.786;2023-07-24T14:20:16;15.20;99.90
33803;DHT22;20110;53.120;5.786;2023-07-24T14:22:43;15.30;99.90
33803;DHT22;20110;53.120;5.786;2023-07-24T14:25:09;15.60;99.90
33803;DHT22;20110;53.120;5.786;2023-07-24T14:27:35;15.70;99.90
33803;DHT22;20110;53.120;5.786;2023-07-24T14:30:00;15.90;99.90
33803;DHT22;20110;53.120;5.786;2023-07-24T14:32:26;16.10;99.90
33803;DHT22;20110;53.120;5.786;2023-07-24T14:34:52;16.20;99.90
33803;DHT22;20110;53.120;5.786;2023-07-24T14:37:19;16.30;99.90
33803;DHT22;20110;53.120;5.786;2023-07-24T14:39:45;16.30;99.90
33803;DHT22;20110;53.120;5.786;2023-07-24T14:42:11;16.40;99.90
33803;DHT22;20110;53.120;5.786;2023-07-24T14:44:37;16.50;99.90
33803;DHT22;20110;53.120;5.786;2023-07-24T14:47:03;16.60;99.90
33803;DHT22;20110;53.120;5.786;2023-07-24T14:49:30;16.60;99.90
33803;DHT22;20110;53.120;5.786;2023-07-24T14:51:55;16.70;99.90
33803;DHT22;20110;53.120;5.786;2023-07-24T14:54:22;16.50;99.90
33803;DHT22;20110;53.120;5.786;2023-07-24T14:56:49;16.20;99.90
33803;DHT22;20110;53.120;5.786;2023-07-24T14:59:15;16.10;99.90
33803;DHT22;20110;53.120;5.786;2023-07-24T15:01:42;16.10;99.90
33803;DHT22;20110;53.120;5.786;2023-07-24T15:04:08;16.00;99.90
33803;DHT22;20110;53.120;5.786;2023-07-24T15:06:34;15.90;99.90
33803;DHT22;20110;53.120;5.786;2023-07-24T15:08:59;15.60;99.90
33803;DHT22;20110;53.120;5.786;2023-07-24T15:11:25;15.30;99.90
33803;DHT22;20110;53.120;5.786;2023-07-24T15:13:52;14.90;99.90
33803;DHT22;20110;53.120;5.786;2023-07-24T15:16:18;14.70;99.90
33803;DHT22;20110;53.120;5.786;2023-07-24T15:18:43;14.60;99.90
33803;DHT22;20110;53.120;5.786;2023-07-24T15:21:10;14.60;99.90
33803;DHT22;20110;53.120;5.786;2023-07-24T15:23:36;14.70;99.90
33803;DHT22;20110;53.120;5.786;2023-07-24T15:26:02;14.80;99.90
33803;DHT22;20110;53.120;5.786;2023-07-24T15:28:28;15.00;99.90
33803;DHT22;20110;53.120;5.786;2023-07-24T15:30:54;15.10;99.90
33803;DHT22;20110;53.120;5.786;2023-07-24T15:33:20;15.20;99.90
33803;DHT22;20110;53.120;5.786;2023-07-24T15:35:45;15.20;99.90
33803;DHT22;20110;53.120;5.786;2023-07-24T15:38:11;15.10;99.90